Terminal Aerodrome Forecast
Issued by NWS Sterling, VA

Current Version | Previous Version | Graphics & Text | Print | Product List | Glossary On
Versions: 1 2 3 4 5 6 7 8 9 10 11 12 13 14 15 16 17 18 19 20 21 22 23
075
FTUS41 KLWX 251140
TAFDCA
TAF
KDCA 251140Z 2512/2612 17009KT P6SM BKN250
     FM251400 18011G18KT P6SM BKN040
     FM251700 18015G24KT P6SM OVC040
     FM251900 21014G22KT 5SM -TSRA OVC040CB
     FM252000 27014G34KT 6SM -SHRA VCTS OVC045CB
     FM252200 30015G34KT P6SM BKN045
     FM260600 30014G24KT P6SM SCT040=

USA.gov is the U.S. government's official web portal to all federal, state and local government web resources and services.